createdAt,value
2019-04-03T00:01:13.464Z,91.50
2019-04-03T00:03:41.969Z,91.90
2019-04-03T00:06:10.693Z,92.10
2019-04-03T00:08:39.405Z,92.70
2019-04-03T00:11:09.459Z,93.10
2019-04-03T00:13:41.457Z,92.40
2019-04-03T00:16:08.675Z,91.70
2019-04-03T00:18:37.109Z,93.10
2019-04-03T00:21:05.824Z,93.50
2019-04-03T00:23:34.262Z,91.90
2019-04-03T00:26:02.973Z,92.90
2019-04-03T00:28:31.413Z,92.70
2019-04-03T00:31:00.127Z,93.60
2019-04-03T00:33:28.896Z,95.10
2019-04-03T00:35:57.352Z,94.80
2019-04-03T00:38:26.055Z,95.00
2019-04-03T00:40:54.991Z,96.30
2019-04-03T00:43:24.787Z,97.00
2019-04-03T00:45:54.545Z,99.50
2019-04-03T00:48:25.824Z,96.00
2019-04-03T00:50:56.184Z,96.30
2019-04-03T00:53:24.390Z,96.70
2019-04-03T00:55:52.880Z,97.30
2019-04-03T00:58:35.984Z,99.90
2019-04-03T01:01:06.358Z,99.90
2019-04-03T01:03:34.882Z,99.90
2019-04-03T01:06:03.961Z,99.90
2019-04-03T01:08:32.426Z,99.70
2019-04-03T01:11:01.020Z,99.90
2019-04-03T01:13:31.287Z,99.90
2019-04-03T01:16:02.012Z,99.90
2019-04-03T01:18:30.209Z,99.90
2019-04-03T01:20:58.735Z,99.90
2019-04-03T01:23:27.185Z,99.90
2019-04-03T01:25:55.641Z,99.90
2019-04-03T01:28:24.073Z,99.90
2019-04-03T01:30:52.796Z,99.90
2019-04-03T01:33:21.236Z,99.90
2019-04-03T01:35:49.969Z,99.90
2019-04-03T01:38:19.476Z,99.90
2019-04-03T01:40:48.900Z,99.90
2019-04-03T01:43:18.915Z,99.90
2019-04-03T01:45:47.572Z,99.90
2019-04-03T01:48:16.033Z,99.90
2019-04-03T01:50:44.475Z,99.90
2019-04-03T01:53:12.941Z,99.90
2019-04-03T01:55:41.376Z,99.90
2019-04-03T01:58:09.838Z,99.90
2019-04-03T02:00:38.537Z,99.90
2019-04-03T02:03:09.724Z,99.90
2019-04-03T02:05:37.204Z,99.90
2019-04-03T02:08:05.725Z,99.90
2019-04-03T02:10:34.238Z,99.90
2019-04-03T02:13:02.678Z,99.90
2019-04-03T02:15:31.140Z,99.90
2019-04-03T02:17:59.700Z,99.90
2019-04-03T02:20:28.261Z,99.90
2019-04-03T02:22:59.521Z,99.90
2019-04-03T02:25:27.426Z,99.90
2019-04-03T02:27:55.950Z,99.90
2019-04-03T02:30:24.397Z,99.90
2019-04-03T02:32:55.082Z,99.90
2019-04-03T02:35:23.015Z,99.90
2019-04-03T02:37:51.745Z,99.90
2019-04-03T02:40:20.271Z,99.90
2019-04-03T02:42:49.022Z,99.90
2019-04-03T02:45:17.822Z,99.90
2019-04-03T02:47:46.477Z,99.90
2019-04-03T02:50:18.238Z,99.90
2019-04-03T02:52:47.057Z,99.90
2019-04-03T02:55:15.827Z,99.90
2019-04-03T02:57:44.295Z,99.90
2019-04-03T03:00:12.989Z,99.90
2019-04-03T03:02:44.079Z,99.90
2019-04-03T03:05:11.887Z,99.90
2019-04-03T03:07:40.862Z,99.90
2019-04-03T03:10:09.540Z,99.90
2019-04-03T03:12:38.978Z,99.90
2019-04-03T03:15:10.891Z,99.90
2019-04-03T03:17:39.147Z,99.90
2019-04-03T03:20:08.466Z,99.90
2019-04-03T03:22:39.371Z,99.90
2019-04-03T03:25:08.378Z,99.90
2019-04-03T03:27:40.187Z,99.90
2019-04-03T03:30:30.951Z,99.90
2019-04-03T03:32:40.745Z,99.90
2019-04-03T03:35:15.126Z,99.90
2019-04-03T03:37:39.904Z,99.90
2019-04-03T03:40:09.042Z,99.90
2019-04-03T03:42:38.183Z,99.90
2019-04-03T03:45:08.754Z,99.90
2019-04-03T03:47:37.935Z,99.90
2019-04-03T03:50:08.390Z,99.90
2019-04-03T03:52:38.640Z,99.90
2019-04-03T03:55:08.626Z,99.90
2019-04-03T03:57:40.283Z,99.90
2019-04-03T04:00:09.372Z,99.90
2019-04-03T04:02:42.937Z,99.90
2019-04-03T04:05:11.311Z,99.90
2019-04-03T04:07:39.251Z,99.90
2019-04-03T04:10:07.912Z,99.90
2019-04-03T04:12:39.741Z,99.90
2019-04-03T04:15:06.948Z,99.90
2019-04-03T04:17:36.069Z,99.90
2019-04-03T04:20:07.382Z,99.90
2019-04-03T04:22:37.331Z,99.90
2019-04-03T04:25:07.092Z,99.90
2019-04-03T04:27:38.611Z,99.90
2019-04-03T04:30:06.766Z,99.90
2019-04-03T04:32:35.554Z,99.90
2019-04-03T04:35:05.546Z,99.90
2019-04-03T04:37:34.007Z,99.90
2019-04-03T04:40:02.517Z,99.90
2019-04-03T04:42:31.352Z,99.90
2019-04-03T04:45:00.164Z,99.90
2019-04-03T04:47:29.013Z,99.90
2019-04-03T04:49:57.577Z,99.90
2019-04-03T04:52:27.615Z,99.90
2019-04-03T04:54:56.466Z,99.90
2019-04-03T04:57:25.196Z,99.90
2019-04-03T04:59:53.655Z,99.90
2019-04-03T05:02:22.418Z,99.90
2019-04-03T05:04:51.136Z,99.90
2019-04-03T05:07:19.569Z,99.90
2019-04-03T05:09:48.272Z,99.90
2019-04-03T05:12:17.436Z,99.90
2019-04-03T05:14:46.886Z,99.90
2019-04-03T05:17:16.409Z,99.90
2019-04-03T05:19:45.010Z,99.90
2019-04-03T05:22:13.709Z,99.90
2019-04-03T05:24:42.229Z,99.90
2019-04-03T05:27:10.656Z,99.90
2019-04-03T05:29:39.342Z,99.90
2019-04-03T05:32:09.933Z,99.90
2019-04-03T05:34:38.357Z,99.90
2019-04-03T05:37:06.813Z,99.90
2019-04-03T05:39:35.254Z,99.90
2019-04-03T05:42:03.741Z,99.90
2019-04-03T05:44:33.400Z,99.90
2019-04-03T05:47:02.757Z,99.90
2019-04-03T05:49:31.375Z,99.90
2019-04-03T05:51:59.838Z,99.90
2019-04-03T05:54:28.453Z,99.90
2019-04-03T05:56:56.930Z,99.90
2019-04-03T05:59:25.369Z,99.90
2019-04-03T06:01:54.060Z,99.90
2019-04-03T06:04:22.524Z,99.90
2019-04-03T06:06:50.959Z,99.90
2019-04-03T06:09:21.750Z,99.90
2019-04-03T06:11:52.167Z,99.90
2019-04-03T06:14:22.660Z,99.90
2019-04-03T06:16:49.962Z,99.90
2019-04-03T06:19:18.449Z,99.90
2019-04-03T06:21:46.980Z,99.90
2019-04-03T06:24:17.701Z,99.90
2019-04-03T06:26:45.870Z,99.90
2019-04-03T06:29:14.603Z,99.90
2019-04-03T06:31:43.440Z,99.90
2019-04-03T06:34:12.145Z,99.90
2019-04-03T06:36:40.613Z,99.90
2019-04-03T06:39:09.962Z,99.90
2019-04-03T06:41:38.422Z,99.90
2019-04-03T06:44:06.866Z,99.90
2019-04-03T06:46:35.577Z,99.90
2019-04-03T06:49:04.583Z,99.90
2019-04-03T06:51:33.158Z,99.90
2019-04-03T06:54:01.872Z,99.90
2019-04-03T06:56:30.581Z,99.90
2019-04-03T06:58:59.305Z,99.90
2019-04-03T07:01:28.011Z,99.90
2019-04-03T07:03:56.478Z,99.90
2019-04-03T07:06:24.919Z,99.90
2019-04-03T07:08:53.385Z,99.70
2019-04-03T07:11:23.563Z,97.70
2019-04-03T07:13:55.276Z,96.40
2019-04-03T07:16:23.893Z,94.60
2019-04-03T07:18:52.344Z,93.20
2019-04-03T07:21:22.740Z,92.70
2019-04-03T07:23:51.256Z,93.50
2019-04-03T07:26:19.805Z,92.50
2019-04-03T07:28:48.339Z,91.30
2019-04-03T07:31:17.053Z,89.80
2019-04-03T07:33:45.490Z,91.00
2019-04-03T07:36:14.212Z,88.10
2019-04-03T07:38:42.661Z,88.40
2019-04-03T07:41:11.110Z,90.30
2019-04-03T07:43:39.641Z,85.80
2019-04-03T07:46:08.497Z,88.80
2019-04-03T07:48:37.981Z,83.20
2019-04-03T07:51:07.355Z,84.70
2019-04-03T07:53:36.054Z,87.70
2019-04-03T07:56:05.189Z,85.10
2019-04-03T07:58:34.101Z,84.50
2019-04-03T08:01:02.721Z,78.80
2019-04-03T08:03:31.240Z,80.60
2019-04-03T08:06:01.008Z,77.90
2019-04-03T08:08:29.861Z,78.60
2019-04-03T08:10:59.719Z,80.40
2019-04-03T08:13:28.478Z,80.50
2019-04-03T08:15:57.175Z,83.00
2019-04-03T08:18:25.901Z,79.30
2019-04-03T08:20:55.113Z,79.20
2019-04-03T08:23:24.795Z,77.20
2019-04-03T08:25:54.718Z,78.20
2019-04-03T08:28:25.942Z,75.70
2019-04-03T08:30:54.181Z,74.40
2019-04-03T08:33:26.265Z,73.00
2019-04-03T08:35:53.145Z,72.70
2019-04-03T08:38:21.864Z,71.40
2019-04-03T08:40:52.387Z,68.80
2019-04-03T08:43:20.536Z,69.20
2019-04-03T08:45:49.055Z,70.40
2019-04-03T08:48:18.092Z,68.60
2019-04-03T08:50:46.841Z,68.50
2019-04-03T08:53:15.659Z,68.70
2019-04-03T08:55:46.417Z,68.10
2019-04-03T08:58:14.548Z,70.00
2019-04-03T09:00:43.069Z,65.40
2019-04-03T09:03:12.314Z,67.50
2019-04-03T09:05:42.003Z,68.50
2019-04-03T09:08:10.784Z,67.00
2019-04-03T09:10:39.228Z,66.10
2019-04-03T09:13:16.978Z,63.20
2019-04-03T09:15:38.418Z,63.40
2019-04-03T09:18:07.711Z,57.30
2019-04-03T09:20:36.271Z,53.10
2019-04-03T09:23:04.987Z,48.10
2019-04-03T09:25:33.764Z,45.90
2019-04-03T09:28:02.241Z,42.90
2019-04-03T09:30:31.010Z,40.90
2019-04-03T09:33:00.353Z,43.00
2019-04-03T09:35:32.174Z,44.40
2019-04-03T09:38:00.111Z,43.40
2019-04-03T09:40:28.839Z,46.60
2019-04-03T09:42:57.281Z,47.80
2019-04-03T09:45:28.131Z,50.60
2019-04-03T09:47:55.969Z,51.20
2019-04-03T09:50:24.408Z,49.90
2019-04-03T09:52:54.904Z,51.50
2019-04-03T09:55:23.585Z,51.90
2019-04-03T09:57:53.280Z,49.50
2019-04-03T10:00:23.154Z,49.00
2019-04-03T10:02:51.995Z,51.50
2019-04-03T10:05:20.789Z,51.80
2019-04-03T10:07:49.365Z,52.60
2019-04-03T10:10:18.459Z,50.60
2019-04-03T10:12:47.954Z,52.50
2019-04-03T10:15:19.445Z,51.70
2019-04-03T10:17:47.957Z,51.60
2019-04-03T10:20:18.235Z,52.50
2019-04-03T10:22:46.978Z,52.80
2019-04-03T10:25:15.558Z,50.60
2019-04-03T10:27:44.647Z,50.90
2019-04-03T10:30:15.392Z,49.50
2019-04-03T10:32:43.812Z,48.90
2019-04-03T10:35:12.513Z,50.80
2019-04-03T10:37:41.321Z,52.60
2019-04-03T10:40:12.025Z,52.10
2019-04-03T10:42:40.466Z,53.20
2019-04-03T10:45:10.998Z,50.30
2019-04-03T10:47:43.377Z,53.50
2019-04-03T10:50:10.347Z,52.70
2019-04-03T10:52:39.204Z,52.90
2019-04-03T10:55:08.631Z,53.90
2019-04-03T10:57:37.422Z,52.50
2019-04-03T11:00:08.235Z,52.90
2019-04-03T11:02:36.686Z,51.20
2019-04-03T11:05:07.762Z,51.10
2019-04-03T11:07:36.804Z,51.00
2019-04-03T11:10:07.606Z,52.40
2019-04-03T11:12:36.547Z,50.40
2019-04-03T11:15:10.789Z,49.70
2019-04-03T11:17:38.366Z,49.40
2019-04-03T11:20:09.658Z,51.80
2019-04-03T11:22:41.598Z,50.50
2019-04-03T11:25:13.987Z,50.20
2019-04-03T11:27:44.040Z,52.10
2019-04-03T11:30:17.031Z,52.20
2019-04-03T11:32:42.877Z,50.80
2019-04-03T11:35:11.734Z,50.40
2019-04-03T11:37:40.506Z,51.50
2019-04-03T11:40:10.580Z,52.30
2019-04-03T11:42:39.063Z,50.80
2019-04-03T11:45:08.264Z,50.20
2019-04-03T11:47:37.066Z,51.40
2019-04-03T11:50:08.085Z,49.70
2019-04-03T11:52:36.584Z,48.00
2019-04-03T11:55:09.996Z,47.30
2019-04-03T11:57:37.435Z,47.10
2019-04-03T12:00:11.385Z,47.10
2019-04-03T12:02:40.354Z,47.10
2019-04-03T12:05:10.153Z,45.50
2019-04-03T12:07:38.604Z,48.20
2019-04-03T12:10:08.190Z,47.80
2019-04-03T12:12:37.087Z,46.40
2019-04-03T12:15:08.708Z,47.20
2019-04-03T12:17:37.414Z,48.30
2019-04-03T12:20:09.198Z,46.70
2019-04-03T12:22:37.505Z,47.00
2019-04-03T12:25:06.355Z,47.30
2019-04-03T12:27:36.014Z,48.20
2019-04-03T12:30:07.927Z,47.80
2019-04-03T12:32:39.788Z,47.60
2019-04-03T12:35:11.161Z,48.70
2019-04-03T12:37:40.277Z,46.40
2019-04-03T12:40:09.329Z,47.80
2019-04-03T12:42:38.063Z,49.70
2019-04-03T12:45:08.560Z,48.90
2019-04-03T12:47:37.390Z,47.30
2019-04-03T12:50:07.754Z,46.90
2019-04-03T12:52:36.666Z,47.90
2019-04-03T12:55:06.985Z,48.50
2019-04-03T12:57:38.145Z,48.80
2019-04-03T13:00:10.608Z,49.00
2019-04-03T13:02:39.354Z,49.60
2019-04-03T13:05:08.704Z,48.40
2019-04-03T13:07:37.548Z,47.80
2019-04-03T13:10:08.588Z,47.80
2019-04-03T13:12:38.013Z,47.40
2019-04-03T13:15:09.525Z,47.80
2019-04-03T13:17:38.345Z,47.80
2019-04-03T13:20:08.092Z,48.00
2019-04-03T13:22:36.938Z,47.90
2019-04-03T13:25:09.637Z,48.50
2019-04-03T13:27:38.133Z,49.30
2019-04-03T13:30:11.451Z,49.70
2019-04-03T13:32:39.271Z,48.50
2019-04-03T13:35:09.187Z,47.70
2019-04-03T13:37:37.724Z,49.80
2019-04-03T13:40:08.264Z,49.20
2019-04-03T13:42:36.717Z,48.60
2019-04-03T13:45:08.213Z,48.00
2019-04-03T13:47:39.742Z,47.60
2019-04-03T13:50:10.581Z,48.20
2019-04-03T13:52:43.088Z,48.50
2019-04-03T13:55:10.266Z,46.40
2019-04-03T13:57:38.797Z,44.90
2019-04-03T14:00:19.185Z,45.00
2019-04-03T14:02:39.668Z,45.10
2019-04-03T14:05:08.919Z,46.10
2019-04-03T14:07:41.673Z,47.40
2019-04-03T14:10:09.779Z,47.60
2019-04-03T14:12:43.331Z,45.90
2019-04-03T14:15:09.108Z,46.40
2019-04-03T14:17:37.575Z,46.50
2019-04-03T14:20:07.848Z,46.70
2019-04-03T14:22:36.303Z,44.90
2019-04-03T14:25:17.791Z,42.00
2019-04-03T14:27:37.434Z,41.80
2019-04-03T14:30:11.059Z,43.20
2019-04-03T14:32:39.443Z,42.90
2019-04-03T14:35:34.140Z,44.30
2019-04-03T14:37:39.127Z,44.20
2019-04-03T14:40:11.149Z,44.80
2019-04-03T14:42:38.583Z,46.10
2019-04-03T14:45:08.250Z,46.00
2019-04-03T14:47:36.972Z,47.00
2019-04-03T14:50:09.082Z,46.70
2019-04-03T14:52:37.641Z,46.90
2019-04-03T14:55:18.631Z,46.90
2019-04-03T14:57:38.227Z,47.80
2019-04-03T15:00:23.497Z,48.00
2019-04-03T15:02:41.030Z,48.50
2019-04-03T15:05:10.102Z,48.20
2019-04-03T15:07:38.817Z,46.50
2019-04-03T15:10:07.506Z,47.30
2019-04-03T15:12:38.818Z,48.00
2019-04-03T15:15:07.320Z,46.60
2019-04-03T15:17:37.612Z,50.20
2019-04-03T15:20:08.204Z,49.50
2019-04-03T15:22:37.137Z,50.30
2019-04-03T15:25:06.380Z,49.60
2019-04-03T15:27:34.975Z,50.50
2019-04-03T15:30:04.954Z,50.90
2019-04-03T15:32:33.394Z,52.00
2019-04-03T15:35:02.224Z,51.30
2019-04-03T15:37:30.655Z,51.70
2019-04-03T15:39:59.803Z,51.50
2019-04-03T15:42:28.284Z,51.70
2019-04-03T15:44:57.707Z,51.70
2019-04-03T15:47:35.202Z,52.20
2019-04-03T15:49:58.844Z,53.20
2019-04-03T15:52:26.697Z,53.20
2019-04-03T15:54:55.485Z,53.30
2019-04-03T15:57:24.332Z,54.50
2019-04-03T15:59:53.365Z,55.90
2019-04-03T16:02:22.649Z,55.40
2019-04-03T16:04:51.436Z,56.20
2019-04-03T16:07:19.917Z,55.80
2019-04-03T16:09:50.678Z,57.70
2019-04-03T16:12:19.063Z,57.40
2019-04-03T16:14:50.166Z,57.80
2019-04-03T16:17:17.823Z,58.30
2019-04-03T16:19:46.286Z,58.40
2019-04-03T16:22:14.741Z,58.10
2019-04-03T16:24:43.865Z,58.70
2019-04-03T16:27:12.947Z,60.00
2019-04-03T16:29:41.872Z,58.80
2019-04-03T16:32:10.442Z,58.10
2019-04-03T16:34:41.708Z,57.60
2019-04-03T16:37:09.428Z,58.50
2019-04-03T16:39:38.230Z,58.60
2019-04-03T16:42:07.272Z,59.70
2019-04-03T16:44:35.856Z,59.20
2019-04-03T16:47:04.305Z,58.70
2019-04-03T16:49:32.780Z,57.60
2019-04-03T16:52:03.373Z,58.50
2019-04-03T16:54:33.086Z,59.10
2019-04-03T16:57:03.581Z,61.50
2019-04-03T16:59:35.370Z,62.20
2019-04-03T17:02:02.568Z,63.70
2019-04-03T17:04:31.098Z,65.90
2019-04-03T17:06:59.893Z,67.90
2019-04-03T17:09:28.339Z,69.10
2019-04-03T17:11:56.795Z,71.40
2019-04-03T17:14:25.719Z,72.80
2019-04-03T17:16:55.023Z,74.40
2019-04-03T17:19:23.606Z,76.60
2019-04-03T17:21:52.598Z,77.40
2019-04-03T17:24:21.150Z,79.40
2019-04-03T17:26:55.766Z,78.40
2019-04-03T17:29:19.839Z,77.30
2019-04-03T17:31:48.426Z,81.30
2019-04-03T17:34:17.184Z,82.20
2019-04-03T17:36:45.817Z,83.00
2019-04-03T17:39:14.569Z,80.60
2019-04-03T17:41:43.023Z,79.70
2019-04-03T17:44:12.056Z,84.00
2019-04-03T17:46:41.646Z,85.80
2019-04-03T17:49:10.090Z,88.30
2019-04-03T17:51:39.332Z,87.10
2019-04-03T17:54:08.358Z,90.10
2019-04-03T17:56:36.971Z,85.70
2019-04-03T17:59:05.419Z,90.00
2019-04-03T18:01:33.853Z,88.10
2019-04-03T18:04:02.311Z,90.50
2019-04-03T18:06:30.740Z,91.70
2019-04-03T18:08:59.201Z,89.50
2019-04-03T18:11:27.632Z,90.20
2019-04-03T18:13:56.327Z,90.00
2019-04-03T18:16:24.893Z,91.70
2019-04-03T18:18:53.331Z,91.70
2019-04-03T18:21:22.041Z,92.60
2019-04-03T18:23:52.607Z,92.50
2019-04-03T18:26:20.916Z,93.10
2019-04-03T18:28:49.599Z,93.20
2019-04-03T18:31:18.060Z,93.20
2019-04-03T18:33:46.806Z,93.80
2019-04-03T18:36:16.697Z,93.90
2019-04-03T18:38:45.122Z,94.00
2019-04-03T18:41:14.995Z,93.60
2019-04-03T18:43:43.731Z,94.90
2019-04-03T18:46:12.168Z,94.60
2019-04-03T18:48:52.594Z,94.10
2019-04-03T18:51:10.783Z,94.20
2019-04-03T18:53:40.635Z,93.70
2019-04-03T18:56:09.877Z,93.20
2019-04-03T18:58:38.575Z,94.40
2019-04-03T19:01:07.270Z,95.30
2019-04-03T19:03:36.414Z,95.70
2019-04-03T19:06:05.622Z,94.10
2019-04-03T19:08:34.132Z,93.00
2019-04-03T19:11:06.184Z,95.60
2019-04-03T19:13:33.245Z,94.70
2019-04-03T19:16:02.370Z,94.50
2019-04-03T19:18:32.098Z,95.00
2019-04-03T19:21:00.745Z,94.40
2019-04-03T19:23:29.221Z,94.60
2019-04-03T19:25:58.111Z,95.30
2019-04-03T19:28:28.086Z,95.90
2019-04-03T19:30:56.806Z,94.40
2019-04-03T19:33:25.505Z,94.80
2019-04-03T19:35:53.985Z,92.50
2019-04-03T19:38:22.493Z,92.80
2019-04-03T19:40:50.919Z,93.10
2019-04-03T19:43:19.391Z,94.60
2019-04-03T19:45:48.078Z,94.40
2019-04-03T19:48:16.525Z,94.30
2019-04-03T19:50:45.204Z,95.60
2019-04-03T19:53:14.116Z,95.80
2019-04-03T19:55:42.721Z,95.30
2019-04-03T19:58:11.582Z,93.20
2019-04-03T20:00:40.081Z,93.50
2019-04-03T20:03:08.788Z,93.80
2019-04-03T20:05:37.222Z,94.00
2019-04-03T20:08:05.726Z,96.00
2019-04-03T20:10:34.338Z,96.20
2019-04-03T20:13:02.941Z,95.60
2019-04-03T20:15:31.378Z,93.70
2019-04-03T20:17:59.810Z,94.20
2019-04-03T20:20:31.587Z,94.50
2019-04-03T20:22:58.995Z,93.70
2019-04-03T20:25:27.807Z,94.20
2019-04-03T20:27:57.087Z,93.80
2019-04-03T20:30:25.825Z,94.30
2019-04-03T20:32:54.507Z,97.00
2019-04-03T20:35:23.230Z,94.80
2019-04-03T20:37:51.660Z,95.00
2019-04-03T20:40:20.457Z,95.50
2019-04-03T20:42:48.895Z,95.80
2019-04-03T20:45:19.172Z,95.90
2019-04-03T20:47:48.073Z,96.70
2019-04-03T20:50:16.644Z,96.40
2019-04-03T20:52:46.216Z,95.70
2019-04-03T20:55:15.314Z,95.30
2019-04-03T20:57:54.968Z,95.80
2019-04-03T21:00:18.097Z,95.20
2019-04-03T21:02:44.981Z,94.20
2019-04-03T21:05:13.499Z,94.20
2019-04-03T21:07:41.949Z,96.70
2019-04-03T21:10:10.813Z,96.40
2019-04-03T21:12:39.269Z,96.70
2019-04-03T21:15:09.175Z,96.50
2019-04-03T21:17:38.276Z,96.00
2019-04-03T21:20:06.986Z,95.10
2019-04-03T21:22:35.765Z,96.30
2019-04-03T21:25:06.083Z,96.30
2019-04-03T21:27:34.661Z,94.90
2019-04-03T21:30:03.672Z,94.50
2019-04-03T21:32:32.126Z,94.20
2019-04-03T21:35:02.968Z,94.90
2019-04-03T21:37:31.250Z,95.30
2019-04-03T21:40:04.304Z,95.40
2019-04-03T21:42:29.926Z,95.80
2019-04-03T21:44:58.361Z,97.00
2019-04-03T21:47:27.065Z,96.30
2019-04-03T21:49:55.516Z,97.10
2019-04-03T21:52:24.217Z,96.40
2019-04-03T21:54:52.951Z,96.80
2019-04-03T21:57:21.378Z,95.30
2019-04-03T21:59:49.848Z,97.30
2019-04-03T22:02:18.278Z,97.70
2019-04-03T22:04:46.725Z,98.00
2019-04-03T22:07:15.159Z,98.80
2019-04-03T22:09:43.615Z,96.90
2019-04-03T22:12:12.312Z,99.90
2019-04-03T22:14:41.003Z,98.30
2019-04-03T22:17:10.920Z,97.50
2019-04-03T22:19:39.357Z,96.80
2019-04-03T22:22:07.816Z,98.30
2019-04-03T22:24:37.794Z,99.30
2019-04-03T22:27:06.693Z,98.20
2019-04-03T22:29:35.127Z,98.90
2019-04-03T22:32:03.824Z,97.50
2019-04-03T22:34:32.260Z,99.90
2019-04-03T22:37:03.865Z,99.90
2019-04-03T22:39:30.969Z,99.90
2019-04-03T22:41:59.678Z,99.80
2019-04-03T22:44:28.365Z,99.90
2019-04-03T22:46:56.805Z,99.20
2019-04-03T22:49:25.243Z,99.80
2019-04-03T22:51:53.966Z,99.90
2019-04-03T22:54:22.397Z,99.90
2019-04-03T22:56:50.868Z,99.90
2019-04-03T22:59:19.306Z,99.90
2019-04-03T23:01:47.734Z,99.50
2019-04-03T23:04:16.185Z,99.10
2019-04-03T23:06:44.878Z,99.90
2019-04-03T23:09:13.385Z,99.10
2019-04-03T23:11:41.822Z,99.30
2019-04-03T23:14:10.276Z,99.90
2019-04-03T23:16:38.706Z,99.90
2019-04-03T23:19:07.425Z,99.90
2019-04-03T23:21:35.861Z,99.10
2019-04-03T23:24:04.290Z,99.90
2019-04-03T23:26:33.011Z,99.90
2019-04-03T23:29:03.072Z,99.80
2019-04-03T23:31:31.888Z,99.10
2019-04-03T23:34:00.310Z,99.10
2019-04-03T23:36:29.025Z,98.30
2019-04-03T23:38:57.458Z,97.70
2019-04-03T23:41:25.908Z,98.10
2019-04-03T23:43:54.336Z,98.90
2019-04-03T23:46:22.838Z,98.90
2019-04-03T23:48:51.586Z,99.60
2019-04-03T23:51:23.533Z,99.70
2019-04-03T23:53:50.270Z,99.60
2019-04-03T23:56:18.987Z,99.90
2019-04-03T23:58:47.497Z,99.90
